createdAt,value
2019-05-20T00:01:17.839Z,6.53
2019-05-20T00:03:46.831Z,7.90
2019-05-20T00:06:14.774Z,8.00
2019-05-20T00:08:42.662Z,7.03
2019-05-20T00:11:10.610Z,8.33
2019-05-20T00:13:38.545Z,7.00
2019-05-20T00:16:06.502Z,7.87
2019-05-20T00:18:34.423Z,7.63
2019-05-20T00:21:02.413Z,7.07
2019-05-20T00:23:30.362Z,7.40
2019-05-20T00:25:58.230Z,6.90
2019-05-20T00:28:26.238Z,7.27
2019-05-20T00:30:54.077Z,7.60
2019-05-20T00:33:22.035Z,8.90
2019-05-20T00:35:51.729Z,7.70
2019-05-20T00:38:19.752Z,7.30
2019-05-20T00:40:47.673Z,7.30
2019-05-20T00:43:15.590Z,7.37
2019-05-20T00:45:43.511Z,7.20
2019-05-20T00:48:11.388Z,7.50
2019-05-20T00:50:39.257Z,8.60
2019-05-20T00:53:07.333Z,7.13
2019-05-20T00:55:38.584Z,6.90
2019-05-20T00:58:06.518Z,7.37
2019-05-20T01:00:34.542Z,6.90
2019-05-20T01:03:02.451Z,6.90
2019-05-20T01:05:30.345Z,6.77
2019-05-20T01:07:58.266Z,6.77
2019-05-20T01:10:26.125Z,6.70
2019-05-20T01:12:54.044Z,5.70
2019-05-20T01:15:21.981Z,6.40
2019-05-20T01:17:49.879Z,5.70
2019-05-20T01:20:18.224Z,6.10
2019-05-20T01:22:46.189Z,6.57
2019-05-20T01:25:14.156Z,6.20
2019-05-20T01:27:42.019Z,6.00
2019-05-20T01:30:10.662Z,5.37
2019-05-20T01:32:38.569Z,6.40
2019-05-20T01:35:06.771Z,5.57
2019-05-20T01:37:34.777Z,6.00
2019-05-20T01:40:02.709Z,6.10
2019-05-20T01:42:30.719Z,6.30
2019-05-20T01:44:58.564Z,5.90
2019-05-20T01:47:26.485Z,5.50
2019-05-20T01:49:54.660Z,6.50
2019-05-20T01:52:22.532Z,6.03
2019-05-20T01:54:50.452Z,5.90
2019-05-20T01:57:18.402Z,6.10
2019-05-20T01:59:46.449Z,6.13
2019-05-20T02:02:14.403Z,5.87
2019-05-20T02:04:42.274Z,6.33
2019-05-20T02:07:10.176Z,6.50
2019-05-20T02:09:38.214Z,5.60
2019-05-20T02:12:06.129Z,6.30
2019-05-20T02:14:39.390Z,6.43
2019-05-20T02:17:07.277Z,6.43
2019-05-20T02:19:35.171Z,5.50
2019-05-20T02:22:03.080Z,6.43
2019-05-20T02:24:31.009Z,6.20
2019-05-20T02:26:58.957Z,5.37
2019-05-20T02:29:26.864Z,5.60
2019-05-20T02:31:54.690Z,5.83
2019-05-20T02:34:22.576Z,6.13
2019-05-20T02:36:50.473Z,5.73
2019-05-20T02:39:18.405Z,5.10
2019-05-20T02:41:46.296Z,6.67
2019-05-20T02:44:14.287Z,5.90
2019-05-20T02:46:42.298Z,6.13
2019-05-20T02:49:10.272Z,6.23
2019-05-20T02:51:38.156Z,5.57
2019-05-20T02:54:06.203Z,6.47
2019-05-20T02:56:34.205Z,6.20
2019-05-20T02:59:02.582Z,6.40
2019-05-20T03:01:30.441Z,6.47
2019-05-20T03:04:10.578Z,6.67
2019-05-20T03:06:28.371Z,6.17
2019-05-20T03:08:56.283Z,6.93
2019-05-20T03:11:24.195Z,6.47
2019-05-20T03:13:52.465Z,7.63
2019-05-20T03:16:21.553Z,7.30
2019-05-20T03:18:49.547Z,7.43
2019-05-20T03:21:17.484Z,7.27
2019-05-20T03:23:45.323Z,6.97
2019-05-20T03:26:13.328Z,7.47
2019-05-20T03:28:41.213Z,7.10
2019-05-20T03:31:09.123Z,6.80
2019-05-20T03:33:37.107Z,7.47
2019-05-20T03:36:04.994Z,7.27
2019-05-20T03:38:32.872Z,6.67
2019-05-20T03:41:00.749Z,6.57
2019-05-20T03:43:28.593Z,6.70
2019-05-20T03:45:56.488Z,6.57
2019-05-20T03:48:24.373Z,6.40
2019-05-20T03:50:52.295Z,6.40
2019-05-20T03:53:20.240Z,6.20
2019-05-20T03:55:48.177Z,6.60
2019-05-20T03:58:16.108Z,5.90
2019-05-20T04:00:46.015Z,6.40
2019-05-20T04:03:14.425Z,6.43
2019-05-20T04:05:42.457Z,6.10
2019-05-20T04:08:10.462Z,5.80
2019-05-20T04:10:38.505Z,6.00
2019-05-20T04:13:06.666Z,6.10
2019-05-20T04:15:34.590Z,5.77
2019-05-20T04:18:02.513Z,5.77
2019-05-20T04:20:31.638Z,6.00
2019-05-20T04:22:59.610Z,5.50
2019-05-20T04:25:27.629Z,6.60
2019-05-20T04:27:55.572Z,5.77
2019-05-20T04:30:23.470Z,5.33
2019-05-20T04:32:51.459Z,5.80
2019-05-20T04:35:22.715Z,5.83
2019-05-20T04:37:49.324Z,6.27
2019-05-20T04:40:17.483Z,5.80
2019-05-20T04:42:45.422Z,5.97
2019-05-20T04:45:13.484Z,5.80
2019-05-20T04:47:41.421Z,6.07
2019-05-20T04:50:09.762Z,6.10
2019-05-20T04:52:37.655Z,5.43
2019-05-20T04:55:05.669Z,6.43
2019-05-20T04:57:34.527Z,6.87
2019-05-20T05:00:03.124Z,6.23
2019-05-20T05:02:32.195Z,6.20
2019-05-20T05:05:00.086Z,6.07
2019-05-20T05:07:27.960Z,5.90
2019-05-20T05:09:55.901Z,6.10
2019-05-20T05:12:24.921Z,5.70
2019-05-20T05:14:52.719Z,6.70
2019-05-20T05:17:20.654Z,6.57
2019-05-20T05:19:48.507Z,5.47
2019-05-20T05:22:16.468Z,7.23
2019-05-20T05:24:44.367Z,6.77
2019-05-20T05:27:12.303Z,8.63
2019-05-20T05:29:40.132Z,7.77
2019-05-20T05:32:08.029Z,7.93
2019-05-20T05:34:35.859Z,8.30
2019-05-20T05:37:03.722Z,7.73
2019-05-20T05:39:31.613Z,8.60
2019-05-20T05:41:59.491Z,8.03
2019-05-20T05:44:27.477Z,7.47
2019-05-20T05:46:55.724Z,7.63
2019-05-20T05:49:23.580Z,8.13
2019-05-20T05:51:51.534Z,8.67
2019-05-20T05:54:20.400Z,8.70
2019-05-20T05:56:48.378Z,8.77
2019-05-20T05:59:16.321Z,8.90
2019-05-20T06:01:44.203Z,9.27
2019-05-20T06:04:12.058Z,9.00
2019-05-20T06:06:39.933Z,9.43
2019-05-20T06:09:07.851Z,8.97
2019-05-20T06:11:35.705Z,8.90
2019-05-20T06:14:03.527Z,9.20
2019-05-20T06:16:36.345Z,9.27
2019-05-20T06:19:01.124Z,9.20
2019-05-20T06:21:29.022Z,10.07
2019-05-20T06:23:56.908Z,8.63
2019-05-20T06:26:24.702Z,7.83
2019-05-20T06:28:52.673Z,7.93
2019-05-20T06:31:20.511Z,8.13
2019-05-20T06:33:48.341Z,8.23
2019-05-20T06:36:26.550Z,10.10
2019-05-20T06:38:56.241Z,8.83
2019-05-20T06:41:24.070Z,9.00
2019-05-20T06:43:51.949Z,8.43
2019-05-20T06:46:19.853Z,10.13
2019-05-20T06:48:47.686Z,8.80
2019-05-20T06:51:15.505Z,9.30
2019-05-20T06:53:43.397Z,8.93
2019-05-20T06:56:11.267Z,9.87
2019-05-20T06:58:39.123Z,8.53
2019-05-20T07:01:07.047Z,9.43
2019-05-20T07:03:34.947Z,9.70
2019-05-20T07:06:02.833Z,9.60
2019-05-20T07:08:30.705Z,9.23
2019-05-20T07:10:58.552Z,8.83
2019-05-20T07:13:26.511Z,8.57
2019-05-20T07:15:54.392Z,8.60
2019-05-20T07:18:22.351Z,8.30
2019-05-20T07:20:50.261Z,8.70
2019-05-20T07:23:18.248Z,8.47
2019-05-20T07:25:46.281Z,8.67
2019-05-20T07:28:14.234Z,8.60
2019-05-20T07:30:42.141Z,9.63
2019-05-20T07:33:09.983Z,8.40
2019-05-20T07:35:37.871Z,9.27
2019-05-20T07:38:05.814Z,7.87
2019-05-20T07:40:33.716Z,9.23
2019-05-20T07:43:03.527Z,8.33
2019-05-20T07:45:34.545Z,9.17
2019-05-20T07:48:03.939Z,8.20
2019-05-20T07:50:34.294Z,8.20
2019-05-20T07:53:02.293Z,7.50
2019-05-20T07:55:36.094Z,8.03
2019-05-20T07:58:07.736Z,8.03
2019-05-20T08:00:36.388Z,8.40
2019-05-20T08:03:04.618Z,8.73
2019-05-20T08:05:33.603Z,8.40
2019-05-20T08:08:01.663Z,8.90
2019-05-20T08:10:29.519Z,9.47
2019-05-20T08:12:57.580Z,9.00
2019-05-20T08:15:25.558Z,9.07
2019-05-20T08:17:53.939Z,8.40
2019-05-20T08:20:22.358Z,9.50
2019-05-20T08:22:50.215Z,9.73
2019-05-20T08:25:18.290Z,9.20
2019-05-20T08:27:46.221Z,10.20
2019-05-20T08:30:17.075Z,9.50
2019-05-20T08:32:44.966Z,9.23
2019-05-20T08:35:12.980Z,10.37
2019-05-20T08:37:45.860Z,9.70
2019-05-20T08:40:10.615Z,9.87
2019-05-20T08:42:38.502Z,9.37
2019-05-20T08:45:06.718Z,8.87
2019-05-20T08:47:34.663Z,9.80
2019-05-20T08:50:06.890Z,12.70
2019-05-20T08:52:33.426Z,9.43
2019-05-20T08:55:01.655Z,8.77
2019-05-20T08:57:30.416Z,9.60
2019-05-20T08:59:58.476Z,10.17
2019-05-20T09:02:26.430Z,9.07
2019-05-20T09:04:54.270Z,9.80
2019-05-20T09:07:22.130Z,10.00
2019-05-20T09:09:50.029Z,10.50
2019-05-20T09:12:17.878Z,11.00
2019-05-20T09:14:45.785Z,10.23
2019-05-20T09:17:13.734Z,11.17
2019-05-20T09:19:41.617Z,10.73
2019-05-20T09:22:09.589Z,10.10
2019-05-20T09:24:37.545Z,10.47
2019-05-20T09:27:05.486Z,12.00
2019-05-20T09:29:33.373Z,10.70
2019-05-20T09:32:01.493Z,11.63
2019-05-20T09:34:30.263Z,11.13
2019-05-20T09:36:58.166Z,10.83
2019-05-20T09:39:26.000Z,10.67
2019-05-20T09:41:53.843Z,10.90
2019-05-20T09:44:21.720Z,11.70
2019-05-20T09:46:49.544Z,12.07
2019-05-20T09:49:17.378Z,11.50
2019-05-20T09:51:45.290Z,11.10
2019-05-20T09:54:13.238Z,11.17
2019-05-20T09:56:41.118Z,13.27
2019-05-20T09:59:09.091Z,11.33
2019-05-20T10:01:40.308Z,12.47
2019-05-20T10:04:06.970Z,12.00
2019-05-20T10:06:35.823Z,11.20
2019-05-20T10:09:05.379Z,10.70
2019-05-20T10:11:33.693Z,11.80
2019-05-20T10:14:01.534Z,13.03
2019-05-20T10:16:29.410Z,11.77
2019-05-20T10:18:57.285Z,12.00
2019-05-20T10:21:25.160Z,11.90
2019-05-20T10:23:53.026Z,13.10
2019-05-20T10:26:21.024Z,12.40
2019-05-20T10:28:48.903Z,13.27
2019-05-20T10:31:16.766Z,13.20
2019-05-20T10:33:44.697Z,14.87
2019-05-20T10:36:12.566Z,15.13
2019-05-20T10:38:56.774Z,15.60
2019-05-20T10:41:11.520Z,13.27
2019-05-20T10:43:39.528Z,14.90
2019-05-20T10:46:07.429Z,15.10
2019-05-20T10:48:35.311Z,15.67
2019-05-20T10:51:03.177Z,17.80
2019-05-20T10:53:31.171Z,14.90
2019-05-20T10:55:59.302Z,16.50
2019-05-20T10:58:27.561Z,15.60
2019-05-20T11:01:02.639Z,16.97
2019-05-20T11:03:25.267Z,15.07
2019-05-20T11:05:53.200Z,14.97
2019-05-20T11:08:21.201Z,15.23
2019-05-20T11:10:49.027Z,15.20
2019-05-20T11:13:16.979Z,15.47
2019-05-20T11:15:44.916Z,14.87
2019-05-20T11:18:12.860Z,13.70
2019-05-20T11:20:40.710Z,12.73
2019-05-20T11:23:09.383Z,14.97
2019-05-20T11:25:37.273Z,14.77
2019-05-20T11:28:05.327Z,14.37
2019-05-20T11:30:33.196Z,14.07
2019-05-20T11:33:01.065Z,14.30
2019-05-20T11:35:29.053Z,14.90
2019-05-20T11:37:56.956Z,13.83
2019-05-20T11:40:26.008Z,15.60
2019-05-20T11:42:53.871Z,13.63
2019-05-20T11:45:21.758Z,14.47
2019-05-20T11:47:49.735Z,13.10
2019-05-20T11:50:17.765Z,14.00
2019-05-20T11:52:45.642Z,14.33
2019-05-20T11:55:13.816Z,14.10
2019-05-20T11:57:42.236Z,13.27
2019-05-20T12:00:13.835Z,12.83
2019-05-20T12:02:41.860Z,14.33
2019-05-20T12:05:10.408Z,12.53
2019-05-20T12:07:39.314Z,13.10
2019-05-20T12:10:08.250Z,13.90
2019-05-20T12:12:36.345Z,15.00
2019-05-20T12:15:05.992Z,14.57
2019-05-20T12:17:34.491Z,14.83
2019-05-20T12:20:03.941Z,14.23
2019-05-20T12:22:32.446Z,13.77
2019-05-20T12:25:00.311Z,15.77
2019-05-20T12:27:28.176Z,15.87
2019-05-20T12:29:56.237Z,15.03
2019-05-20T12:32:24.111Z,15.00
2019-05-20T12:34:53.044Z,13.50
2019-05-20T12:37:20.927Z,16.13
2019-05-20T12:40:05.524Z,15.20
2019-05-20T12:42:18.982Z,15.40
2019-05-20T12:44:46.956Z,15.10
2019-05-20T12:47:14.797Z,15.73
2019-05-20T12:49:42.678Z,14.43
2019-05-20T12:52:10.550Z,15.20
2019-05-20T12:54:44.673Z,15.00
2019-05-20T12:57:12.616Z,16.30
2019-05-20T12:59:40.474Z,15.87
2019-05-20T13:02:08.462Z,15.77
2019-05-20T13:04:36.327Z,15.70
2019-05-20T13:07:05.302Z,17.87
2019-05-20T13:09:33.218Z,18.23
2019-05-20T13:12:01.343Z,16.80
2019-05-20T13:14:29.187Z,16.60
2019-05-20T13:16:57.059Z,17.90
2019-05-20T13:19:24.932Z,18.47
2019-05-20T13:21:52.852Z,18.00
2019-05-20T13:24:20.769Z,19.47
2019-05-20T13:26:48.661Z,18.07
2019-05-20T13:29:16.581Z,20.73
2019-05-20T13:31:44.430Z,21.63
2019-05-20T13:34:12.316Z,22.60
2019-05-20T13:36:40.188Z,22.80
2019-05-20T13:39:10.999Z,22.43
2019-05-20T13:41:38.885Z,25.60
2019-05-20T13:44:06.733Z,23.40
2019-05-20T13:46:34.693Z,22.60
2019-05-20T13:49:04.124Z,22.53
2019-05-20T13:51:32.093Z,24.43
2019-05-20T13:53:59.984Z,24.03
2019-05-20T13:56:29.114Z,25.93
2019-05-20T13:58:57.005Z,26.33
2019-05-20T14:01:24.850Z,26.13
2019-05-20T14:03:56.724Z,27.60
2019-05-20T14:06:22.572Z,28.33
2019-05-20T14:08:50.625Z,26.97
2019-05-20T14:11:33.601Z,28.07
2019-05-20T14:13:48.302Z,25.70
2019-05-20T14:16:16.174Z,29.60
2019-05-20T14:18:44.069Z,30.10
2019-05-20T14:21:12.160Z,30.40
2019-05-20T14:23:40.251Z,28.67
2019-05-20T14:26:08.281Z,29.07
2019-05-20T14:28:37.197Z,29.77
2019-05-20T14:31:06.206Z,29.63
2019-05-20T14:33:34.490Z,31.10
2019-05-20T14:36:02.604Z,27.53
2019-05-20T14:38:31.465Z,27.60
2019-05-20T14:40:59.473Z,28.13
2019-05-20T14:43:27.695Z,26.80
2019-05-20T14:45:56.938Z,26.50
2019-05-20T14:48:24.969Z,28.00
2019-05-20T14:50:52.918Z,26.80
2019-05-20T14:53:20.896Z,28.10
2019-05-20T14:55:49.175Z,26.90
2019-05-20T14:58:17.954Z,27.90
2019-05-20T15:00:45.966Z,27.30
2019-05-20T15:03:13.939Z,26.80
2019-05-20T15:05:41.876Z,27.03
2019-05-20T15:08:09.888Z,29.60
2019-05-20T15:10:37.839Z,29.60
2019-05-20T15:13:05.783Z,30.87
2019-05-20T15:15:34.390Z,28.23
2019-05-20T15:18:02.378Z,27.37
2019-05-20T15:20:31.172Z,29.73
2019-05-20T15:22:59.134Z,27.90
2019-05-20T15:25:27.180Z,28.17
2019-05-20T15:27:56.193Z,29.43
2019-05-20T15:30:25.805Z,27.87
2019-05-20T15:32:54.880Z,29.53
2019-05-20T15:35:24.170Z,30.77
2019-05-20T15:37:52.126Z,29.80
2019-05-20T15:40:24.047Z,32.80
2019-05-20T15:42:50.940Z,29.10
2019-05-20T15:45:19.325Z,28.50
2019-05-20T15:47:47.371Z,27.83
2019-05-20T15:50:16.351Z,29.97
2019-05-20T15:52:44.360Z,29.60
2019-05-20T15:55:13.135Z,29.90
2019-05-20T15:57:41.432Z,25.73
2019-05-20T16:00:10.442Z,30.17
2019-05-20T16:02:38.538Z,27.50
2019-05-20T16:05:06.904Z,29.10
2019-05-20T16:07:34.945Z,26.50
2019-05-20T16:10:03.018Z,27.20
2019-05-20T16:12:34.275Z,29.77
2019-05-20T16:15:01.341Z,27.73
2019-05-20T16:17:29.389Z,27.00
2019-05-20T16:19:57.749Z,28.37
2019-05-20T16:22:28.261Z,27.40
2019-05-20T16:24:56.219Z,28.07
2019-05-20T16:27:24.655Z,28.33
2019-05-20T16:30:06.176Z,27.17
2019-05-20T16:32:25.056Z,27.37
2019-05-20T16:34:53.412Z,27.90
2019-05-20T16:37:21.417Z,29.50
2019-05-20T16:39:49.441Z,29.17
2019-05-20T16:42:17.672Z,27.97
2019-05-20T16:44:45.840Z,26.77
2019-05-20T16:47:14.511Z,28.83
2019-05-20T16:49:42.517Z,27.93
2019-05-20T16:52:11.346Z,27.17
2019-05-20T16:54:39.396Z,27.80
2019-05-20T16:57:07.336Z,28.60
2019-05-20T16:59:35.272Z,28.63
2019-05-20T17:02:03.577Z,27.27
2019-05-20T17:04:31.618Z,29.27
2019-05-20T17:06:59.698Z,27.40
2019-05-20T17:09:27.687Z,28.97
2019-05-20T17:11:55.709Z,25.50
2019-05-20T17:14:23.987Z,29.53
2019-05-20T17:16:51.890Z,27.60
2019-05-20T17:19:19.738Z,28.53
2019-05-20T17:21:47.643Z,27.90
2019-05-20T17:24:15.611Z,29.30
2019-05-20T17:26:43.552Z,28.53
2019-05-20T17:29:11.451Z,28.63
2019-05-20T17:31:39.574Z,28.73
2019-05-20T17:34:07.619Z,29.30
2019-05-20T17:36:35.718Z,27.90
2019-05-20T17:39:04.981Z,31.90
2019-05-20T17:41:33.124Z,32.90
2019-05-20T17:44:01.063Z,29.33
2019-05-20T17:46:29.135Z,26.20
2019-05-20T17:48:57.082Z,29.30
2019-05-20T17:51:25.111Z,27.13
2019-05-20T17:53:53.022Z,32.40
2019-05-20T17:56:20.919Z,29.07
2019-05-20T17:58:48.921Z,30.50
2019-05-20T18:01:16.827Z,29.60
2019-05-20T18:03:44.702Z,31.17
2019-05-20T18:06:12.611Z,26.40
2019-05-20T18:08:43.829Z,25.57
2019-05-20T18:11:11.752Z,25.57
2019-05-20T18:13:40.812Z,29.20
2019-05-20T18:16:08.878Z,26.00
2019-05-20T18:18:36.754Z,27.50
2019-05-20T18:21:04.648Z,29.67
2019-05-20T18:23:32.553Z,30.90
2019-05-20T18:26:03.481Z,28.23
2019-05-20T18:28:30.204Z,28.10
2019-05-20T18:30:59.114Z,29.80
2019-05-20T18:33:26.989Z,32.13
2019-05-20T18:35:54.915Z,31.50
2019-05-20T18:38:22.775Z,32.47
2019-05-20T18:40:50.705Z,31.90
2019-05-20T18:43:18.620Z,32.10
2019-05-20T18:45:46.653Z,33.00
2019-05-20T18:48:14.639Z,28.10
2019-05-20T18:50:42.861Z,32.57
2019-05-20T18:53:12.086Z,32.30
2019-05-20T18:55:40.234Z,33.77
2019-05-20T18:58:08.258Z,34.37
2019-05-20T19:00:36.184Z,33.00
2019-05-20T19:03:04.112Z,33.33
2019-05-20T19:05:32.109Z,33.27
2019-05-20T19:08:00.020Z,36.63
2019-05-20T19:10:28.285Z,35.50
2019-05-20T19:12:56.214Z,35.63
2019-05-20T19:15:24.278Z,36.03
2019-05-20T19:17:52.204Z,36.27
2019-05-20T19:20:22.950Z,35.60
2019-05-20T19:22:50.121Z,37.67
2019-05-20T19:25:18.072Z,37.60
2019-05-20T19:27:46.129Z,36.07
2019-05-20T19:30:14.951Z,37.27
2019-05-20T19:32:53.012Z,34.73
2019-05-20T19:35:21.052Z,36.67
2019-05-20T19:37:49.023Z,36.97
2019-05-20T19:40:17.100Z,34.77
2019-05-20T19:42:45.236Z,35.30
2019-05-20T19:45:13.588Z,36.83
2019-05-20T19:47:41.520Z,33.73
2019-05-20T19:50:10.064Z,34.90
2019-05-20T19:52:38.112Z,33.33
2019-05-20T19:55:06.439Z,34.90
2019-05-20T19:57:34.383Z,37.70
2019-05-20T20:00:02.538Z,35.77
2019-05-20T20:02:30.619Z,38.70
2019-05-20T20:04:58.528Z,35.80
2019-05-20T20:07:28.786Z,36.80
2019-05-20T20:09:56.285Z,38.70
2019-05-20T20:12:24.418Z,39.17
2019-05-20T20:14:52.435Z,38.60
2019-05-20T20:17:20.336Z,35.77
2019-05-20T20:19:48.248Z,38.40
2019-05-20T20:22:16.133Z,41.07
2019-05-20T20:24:44.110Z,39.13
2019-05-20T20:27:12.046Z,35.10
2019-05-20T20:29:39.939Z,39.20
2019-05-20T20:32:07.867Z,39.43
2019-05-20T20:34:35.842Z,38.07
2019-05-20T20:37:03.808Z,40.57
2019-05-20T20:39:34.314Z,35.23
2019-05-20T20:42:01.576Z,35.30
2019-05-20T20:44:29.332Z,36.23
2019-05-20T20:46:57.169Z,38.30
2019-05-20T20:49:25.112Z,37.83
2019-05-20T20:51:59.181Z,37.93
2019-05-20T20:54:27.096Z,36.37
2019-05-20T20:56:55.005Z,34.93
2019-05-20T20:59:22.966Z,35.57
2019-05-20T21:02:03.200Z,33.87
2019-05-20T21:04:32.112Z,32.70
2019-05-20T21:07:00.163Z,30.93
2019-05-20T21:09:28.103Z,32.43
2019-05-20T21:11:56.051Z,33.20
2019-05-20T21:14:27.521Z,34.70
2019-05-20T21:16:55.574Z,30.00
2019-05-20T21:19:24.651Z,28.90
2019-05-20T21:21:52.635Z,29.83
2019-05-20T21:24:25.375Z,29.30
2019-05-20T21:26:57.735Z,30.50
2019-05-20T21:29:25.942Z,31.80
2019-05-20T21:31:53.976Z,32.10
2019-05-20T21:34:21.933Z,30.47
2019-05-20T21:36:50.623Z,29.37
2019-05-20T21:39:18.543Z,29.90
2019-05-20T21:41:46.549Z,30.13
2019-05-20T21:44:14.429Z,31.60
2019-05-20T21:47:09.795Z,32.23
2019-05-20T21:49:38.731Z,31.87
2019-05-20T21:52:07.763Z,31.03
2019-05-20T21:54:35.714Z,31.97
2019-05-20T21:57:03.604Z,29.40
2019-05-20T21:59:31.440Z,29.30
2019-05-20T22:01:59.348Z,30.47
2019-05-20T22:04:31.121Z,29.63
2019-05-20T22:06:59.137Z,30.53
2019-05-20T22:09:27.248Z,29.10
2019-05-20T22:11:55.121Z,31.00
2019-05-20T22:14:23.156Z,30.60
2019-05-20T22:16:50.971Z,30.43
2019-05-20T22:19:19.077Z,31.00
2019-05-20T22:21:56.594Z,33.13
2019-05-20T22:24:24.513Z,31.53
2019-05-20T22:26:52.487Z,31.77
2019-05-20T22:29:20.367Z,32.57
2019-05-20T22:31:48.286Z,34.33
2019-05-20T22:34:16.180Z,34.47
2019-05-20T22:36:44.195Z,37.60
2019-05-20T22:39:12.152Z,38.23
2019-05-20T22:41:40.057Z,37.90
2019-05-20T22:44:08.988Z,39.53
2019-05-20T22:46:36.847Z,38.40
2019-05-20T22:49:04.861Z,36.83
2019-05-20T22:51:32.710Z,41.63
2019-05-20T22:54:00.890Z,41.00
2019-05-20T22:56:28.781Z,39.27
2019-05-20T22:58:56.815Z,37.20
2019-05-20T23:01:24.714Z,35.67
2019-05-20T23:03:56.382Z,33.27
2019-05-20T23:06:22.451Z,33.80
2019-05-20T23:08:50.355Z,33.10
2019-05-20T23:11:18.294Z,33.40
2019-05-20T23:13:46.289Z,31.60
2019-05-20T23:16:14.178Z,33.40
2019-05-20T23:18:42.122Z,34.10
2019-05-20T23:21:10.087Z,32.23
2019-05-20T23:23:38.055Z,32.23
2019-05-20T23:26:15.234Z,32.27
2019-05-20T23:28:43.219Z,29.63
2019-05-20T23:31:11.924Z,30.90
2019-05-20T23:33:39.829Z,33.30
2019-05-20T23:36:07.724Z,32.33
2019-05-20T23:38:35.622Z,33.40
2019-05-20T23:41:03.643Z,33.77
2019-05-20T23:43:31.696Z,35.13
2019-05-20T23:45:59.860Z,33.27
2019-05-20T23:48:27.798Z,34.67
2019-05-20T23:50:55.714Z,32.93
2019-05-20T23:53:23.613Z,33.80
2019-05-20T23:55:51.571Z,34.90
2019-05-20T23:58:19.592Z,34.03
